sensor_id;sensor_type;location;lat;lon;timestamp;P1;durP1;ratioP1;P2;durP2;ratioP2
5831;SDS011;50943;51.448;7.646;2022-07-01T00:00:00;4.63;;;4.13;;
5831;SDS011;50943;51.448;7.646;2022-07-01T00:02:27;5.10;;;4.13;;
5831;SDS011;50943;51.448;7.646;2022-07-01T00:04:54;4.90;;;4.23;;
5831;SDS011;50943;51.448;7.646;2022-07-01T00:07:21;7.27;;;4.80;;
5831;SDS011;50943;51.448;7.646;2022-07-01T00:09:47;7.27;;;5.20;;
5831;SDS011;50943;51.448;7.646;2022-07-01T00:12:15;5.53;;;4.60;;
5831;SDS011;50943;51.448;7.646;2022-07-01T00:14:41;8.73;;;5.53;;
5831;SDS011;50943;51.448;7.646;2022-07-01T00:17:08;9.90;;;6.17;;
5831;SDS011;50943;51.448;7.646;2022-07-01T00:19:34;8.37;;;5.93;;
5831;SDS011;50943;51.448;7.646;2022-07-01T00:22:02;7.47;;;5.63;;
5831;SDS011;50943;51.448;7.646;2022-07-01T00:24:28;6.53;;;5.83;;
5831;SDS011;50943;51.448;7.646;2022-07-01T00:26:55;9.50;;;6.17;;
5831;SDS011;50943;51.448;7.646;2022-07-01T00:29:21;8.43;;;7.47;;
5831;SDS011;50943;51.448;7.646;2022-07-01T00:31:47;10.70;;;8.27;;
5831;SDS011;50943;51.448;7.646;2022-07-01T00:34:14;8.93;;;7.77;;
5831;SDS011;50943;51.448;7.646;2022-07-01T00:36:40;10.27;;;7.80;;
5831;SDS011;50943;51.448;7.646;2022-07-01T00:39:08;11.03;;;7.93;;
5831;SDS011;50943;51.448;7.646;2022-07-01T00:41:34;12.13;;;8.60;;
5831;SDS011;50943;51.448;7.646;2022-07-01T00:44:01;10.87;;;7.30;;
5831;SDS011;50943;51.448;7.646;2022-07-01T00:46:27;11.23;;;9.03;;
5831;SDS011;50943;51.448;7.646;2022-07-01T00:48:55;11.40;;;8.70;;
5831;SDS011;50943;51.448;7.646;2022-07-01T00:51:22;12.07;;;8.63;;
5831;SDS011;50943;51.448;7.646;2022-07-01T00:53:49;14.37;;;9.00;;
5831;SDS011;50943;51.448;7.646;2022-07-01T00:56:17;12.47;;;8.83;;
5831;SDS011;50943;51.448;7.646;2022-07-01T00:58:44;8.77;;;7.40;;
5831;SDS011;50943;51.448;7.646;2022-07-01T01:01:11;11.60;;;7.67;;
5831;SDS011;50943;51.448;7.646;2022-07-01T01:03:37;9.57;;;7.80;;
5831;SDS011;50943;51.448;7.646;2022-07-01T01:06:04;14.70;;;8.37;;
5831;SDS011;50943;51.448;7.646;2022-07-01T01:08:31;10.67;;;7.40;;
5831;SDS011;50943;51.448;7.646;2022-07-01T01:10:57;9.40;;;7.20;;
5831;SDS011;50943;51.448;7.646;2022-07-01T01:13:25;11.57;;;8.63;;
5831;SDS011;50943;51.448;7.646;2022-07-01T01:15:51;9.90;;;7.20;;
5831;SDS011;50943;51.448;7.646;2022-07-01T01:18:18;11.80;;;7.97;;
5831;SDS011;50943;51.448;7.646;2022-07-01T01:20:46;12.17;;;8.87;;
5831;SDS011;50943;51.448;7.646;2022-07-01T01:23:12;9.40;;;7.80;;
5831;SDS011;50943;51.448;7.646;2022-07-01T01:25:39;13.70;;;7.17;;
5831;SDS011;50943;51.448;7.646;2022-07-01T01:28:06;7.87;;;6.70;;
5831;SDS011;50943;51.448;7.646;2022-07-01T01:30:32;8.30;;;6.30;;
5831;SDS011;50943;51.448;7.646;2022-07-01T01:33:00;9.50;;;6.87;;
5831;SDS011;50943;51.448;7.646;2022-07-01T01:35:27;10.50;;;7.23;;
5831;SDS011;50943;51.448;7.646;2022-07-01T01:37:55;8.23;;;6.27;;
5831;SDS011;50943;51.448;7.646;2022-07-01T01:40:22;8.10;;;6.23;;
5831;SDS011;50943;51.448;7.646;2022-07-01T01:42:48;9.70;;;6.80;;
5831;SDS011;50943;51.448;7.646;2022-07-01T01:45:14;9.87;;;8.03;;
5831;SDS011;50943;51.448;7.646;2022-07-01T01:47:41;11.63;;;8.50;;
5831;SDS011;50943;51.448;7.646;2022-07-01T01:50:08;10.90;;;7.50;;
5831;SDS011;50943;51.448;7.646;2022-07-01T01:52:35;11.90;;;7.10;;
5831;SDS011;50943;51.448;7.646;2022-07-01T01:55:04;10.20;;;7.87;;
5831;SDS011;50943;51.448;7.646;2022-07-01T01:57:31;12.50;;;8.00;;
5831;SDS011;50943;51.448;7.646;2022-07-01T01:59:57;8.97;;;6.30;;
5831;SDS011;50943;51.448;7.646;2022-07-01T02:02:24;10.23;;;7.60;;
5831;SDS011;50943;51.448;7.646;2022-07-01T02:04:50;10.83;;;6.93;;
5831;SDS011;50943;51.448;7.646;2022-07-01T02:07:17;11.20;;;8.20;;
5831;SDS011;50943;51.448;7.646;2022-07-01T02:09:43;12.43;;;9.40;;
5831;SDS011;50943;51.448;7.646;2022-07-01T02:12:11;14.23;;;9.30;;
5831;SDS011;50943;51.448;7.646;2022-07-01T02:14:37;11.23;;;8.80;;
5831;SDS011;50943;51.448;7.646;2022-07-01T02:17:04;14.27;;;9.57;;
5831;SDS011;50943;51.448;7.646;2022-07-01T02:19:30;14.33;;;10.40;;
5831;SDS011;50943;51.448;7.646;2022-07-01T02:21:56;14.80;;;9.10;;
5831;SDS011;50943;51.448;7.646;2022-07-01T02:24:23;13.80;;;9.73;;
5831;SDS011;50943;51.448;7.646;2022-07-01T02:26:49;16.03;;;10.70;;
5831;SDS011;50943;51.448;7.646;2022-07-01T02:29:17;14.83;;;10.67;;
5831;SDS011;50943;51.448;7.646;2022-07-01T02:31:43;14.77;;;10.07;;
5831;SDS011;50943;51.448;7.646;2022-07-01T02:34:10;13.97;;;9.97;;
5831;SDS011;50943;51.448;7.646;2022-07-01T02:36:36;12.50;;;8.63;;
5831;SDS011;50943;51.448;7.646;2022-07-01T02:39:03;14.00;;;8.83;;
5831;SDS011;50943;51.448;7.646;2022-07-01T02:41:29;14.60;;;10.10;;
5831;SDS011;50943;51.448;7.646;2022-07-01T02:43:55;12.47;;;8.53;;
5831;SDS011;50943;51.448;7.646;2022-07-01T02:46:23;10.03;;;7.13;;
5831;SDS011;50943;51.448;7.646;2022-07-01T02:48:49;11.97;;;8.40;;
5831;SDS011;50943;51.448;7.646;2022-07-01T02:51:16;12.10;;;7.60;;
5831;SDS011;50943;51.448;7.646;2022-07-01T02:53:42;8.87;;;6.60;;
5831;SDS011;50943;51.448;7.646;2022-07-01T02:56:09;9.53;;;6.90;;
5831;SDS011;50943;51.448;7.646;2022-07-01T02:58:35;9.27;;;6.30;;
5831;SDS011;50943;51.448;7.646;2022-07-01T03:01:01;8.70;;;5.73;;
5831;SDS011;50943;51.448;7.646;2022-07-01T03:03:29;8.87;;;6.67;;
5831;SDS011;50943;51.448;7.646;2022-07-01T03:05:55;8.30;;;5.60;;
5831;SDS011;50943;51.448;7.646;2022-07-01T03:08:22;7.60;;;5.40;;
5831;SDS011;50943;51.448;7.646;2022-07-01T03:10:49;7.97;;;5.30;;
5831;SDS011;50943;51.448;7.646;2022-07-01T03:13:15;9.03;;;5.40;;
5831;SDS011;50943;51.448;7.646;2022-07-01T03:15:41;11.20;;;4.83;;
5831;SDS011;50943;51.448;7.646;2022-07-01T03:18:08;7.07;;;4.57;;
5831;SDS011;50943;51.448;7.646;2022-07-01T03:20:36;5.70;;;4.40;;
5831;SDS011;50943;51.448;7.646;2022-07-01T03:23:02;9.17;;;4.30;;
5831;SDS011;50943;51.448;7.646;2022-07-01T03:25:28;8.43;;;4.73;;
5831;SDS011;50943;51.448;7.646;2022-07-01T03:27:55;6.70;;;4.07;;
5831;SDS011;50943;51.448;7.646;2022-07-01T03:30:21;6.33;;;4.13;;
5831;SDS011;50943;51.448;7.646;2022-07-01T03:32:48;8.43;;;4.53;;
5831;SDS011;50943;51.448;7.646;2022-07-01T03:35:14;6.50;;;3.60;;
5831;SDS011;50943;51.448;7.646;2022-07-01T03:37:59;6.27;;;3.93;;
5831;SDS011;50943;51.448;7.646;2022-07-01T03:40:25;9.10;;;4.70;;
5831;SDS011;50943;51.448;7.646;2022-07-01T03:42:52;6.43;;;4.10;;
5831;SDS011;50943;51.448;7.646;2022-07-01T03:45:18;5.90;;;3.40;;
5831;SDS011;50943;51.448;7.646;2022-07-01T03:47:45;9.40;;;4.40;;
5831;SDS011;50943;51.448;7.646;2022-07-01T03:50:12;6.47;;;4.30;;
5831;SDS011;50943;51.448;7.646;2022-07-01T03:52:39;8.20;;;4.30;;
5831;SDS011;50943;51.448;7.646;2022-07-01T03:55:07;7.70;;;4.60;;
5831;SDS011;50943;51.448;7.646;2022-07-01T03:57:33;7.80;;;4.80;;
5831;SDS011;50943;51.448;7.646;2022-07-01T03:59:59;6.40;;;4.87;;
5831;SDS011;50943;51.448;7.646;2022-07-01T04:02:25;9.03;;;4.73;;
5831;SDS011;50943;51.448;7.646;2022-07-01T04:04:52;9.40;;;5.27;;
5831;SDS011;50943;51.448;7.646;2022-07-01T04:07:20;7.87;;;5.13;;
5831;SDS011;50943;51.448;7.646;2022-07-01T04:09:47;8.80;;;5.10;;
5831;SDS011;50943;51.448;7.646;2022-07-01T04:12:14;8.67;;;6.00;;
5831;SDS011;50943;51.448;7.646;2022-07-01T04:14:41;8.33;;;5.30;;
5831;SDS011;50943;51.448;7.646;2022-07-01T04:17:07;10.90;;;4.97;;
5831;SDS011;50943;51.448;7.646;2022-07-01T04:19:34;8.40;;;5.53;;
5831;SDS011;50943;51.448;7.646;2022-07-01T04:22:01;7.90;;;5.03;;
5831;SDS011;50943;51.448;7.646;2022-07-01T04:24:44;7.63;;;4.77;;
5831;SDS011;50943;51.448;7.646;2022-07-01T04:27:11;9.30;;;5.37;;
5831;SDS011;50943;51.448;7.646;2022-07-01T04:29:39;7.83;;;5.73;;
5831;SDS011;50943;51.448;7.646;2022-07-01T04:32:05;8.90;;;5.20;;
5831;SDS011;50943;51.448;7.646;2022-07-01T04:34:32;9.60;;;6.20;;
5831;SDS011;50943;51.448;7.646;2022-07-01T04:36:58;9.60;;;6.47;;
5831;SDS011;50943;51.448;7.646;2022-07-01T04:39:25;9.60;;;6.40;;
5831;SDS011;50943;51.448;7.646;2022-07-01T04:41:51;9.77;;;5.80;;
5831;SDS011;50943;51.448;7.646;2022-07-01T04:44:35;10.63;;;6.93;;
5831;SDS011;50943;51.448;7.646;2022-07-01T04:47:03;10.57;;;6.20;;
5831;SDS011;50943;51.448;7.646;2022-07-01T04:49:30;10.50;;;6.20;;
5831;SDS011;50943;51.448;7.646;2022-07-01T04:51:57;12.20;;;6.53;;
5831;SDS011;50943;51.448;7.646;2022-07-01T04:54:24;10.50;;;6.53;;
5831;SDS011;50943;51.448;7.646;2022-07-01T04:56:51;13.10;;;5.83;;
5831;SDS011;50943;51.448;7.646;2022-07-01T04:59:17;8.47;;;5.20;;
5831;SDS011;50943;51.448;7.646;2022-07-01T05:01:44;10.03;;;6.60;;
5831;SDS011;50943;51.448;7.646;2022-07-01T05:04:15;12.00;;;6.37;;
5831;SDS011;50943;51.448;7.646;2022-07-01T05:06:42;7.80;;;5.50;;
5831;SDS011;50943;51.448;7.646;2022-07-01T05:09:08;9.77;;;6.13;;
5831;SDS011;50943;51.448;7.646;2022-07-01T05:11:34;11.77;;;5.97;;
5831;SDS011;50943;51.448;7.646;2022-07-01T05:14:01;13.23;;;6.70;;
5831;SDS011;50943;51.448;7.646;2022-07-01T05:16:27;9.63;;;7.23;;
5831;SDS011;50943;51.448;7.646;2022-07-01T05:18:54;12.83;;;7.07;;
5831;SDS011;50943;51.448;7.646;2022-07-01T05:21:40;10.43;;;6.33;;
5831;SDS011;50943;51.448;7.646;2022-07-01T05:24:22;10.47;;;6.93;;
5831;SDS011;50943;51.448;7.646;2022-07-01T05:26:48;16.40;;;7.60;;
5831;SDS011;50943;51.448;7.646;2022-07-01T05:29:15;12.63;;;6.07;;
5831;SDS011;50943;51.448;7.646;2022-07-01T05:31:41;19.43;;;8.27;;
5831;SDS011;50943;51.448;7.646;2022-07-01T05:34:08;10.83;;;6.90;;
5831;SDS011;50943;51.448;7.646;2022-07-01T05:36:35;10.20;;;6.90;;
5831;SDS011;50943;51.448;7.646;2022-07-01T05:39:02;11.00;;;6.33;;
5831;SDS011;50943;51.448;7.646;2022-07-01T05:41:29;12.37;;;6.77;;
5831;SDS011;50943;51.448;7.646;2022-07-01T05:43:56;9.57;;;7.00;;
5831;SDS011;50943;51.448;7.646;2022-07-01T05:46:23;12.87;;;6.43;;
5831;SDS011;50943;51.448;7.646;2022-07-01T05:48:49;9.63;;;7.20;;
5831;SDS011;50943;51.448;7.646;2022-07-01T05:51:15;15.30;;;6.63;;
5831;SDS011;50943;51.448;7.646;2022-07-01T05:53:42;8.90;;;6.50;;
5831;SDS011;50943;51.448;7.646;2022-07-01T05:56:10;10.77;;;7.30;;
5831;SDS011;50943;51.448;7.646;2022-07-01T05:58:36;14.93;;;7.80;;
5831;SDS011;50943;51.448;7.646;2022-07-01T06:01:03;12.80;;;7.97;;
5831;SDS011;50943;51.448;7.646;2022-07-01T06:03:29;14.87;;;6.80;;
5831;SDS011;50943;51.448;7.646;2022-07-01T06:05:56;13.90;;;7.10;;
5831;SDS011;50943;51.448;7.646;2022-07-01T06:08:22;12.00;;;7.47;;
5831;SDS011;50943;51.448;7.646;2022-07-01T06:10:48;9.80;;;6.80;;
5831;SDS011;50943;51.448;7.646;2022-07-01T06:13:16;10.70;;;6.90;;
5831;SDS011;50943;51.448;7.646;2022-07-01T06:15:43;13.13;;;6.67;;
5831;SDS011;50943;51.448;7.646;2022-07-01T06:18:09;12.53;;;7.57;;
5831;SDS011;50943;51.448;7.646;2022-07-01T06:20:35;9.37;;;7.47;;
5831;SDS011;50943;51.448;7.646;2022-07-01T06:23:02;12.27;;;8.10;;
5831;SDS011;50943;51.448;7.646;2022-07-01T06:25:28;9.97;;;7.07;;
5831;SDS011;50943;51.448;7.646;2022-07-01T06:27:54;7.80;;;6.73;;
5831;SDS011;50943;51.448;7.646;2022-07-01T06:30:22;10.47;;;6.77;;
5831;SDS011;50943;51.448;7.646;2022-07-01T06:32:49;11.20;;;6.93;;
5831;SDS011;50943;51.448;7.646;2022-07-01T06:35:15;9.00;;;7.00;;
5831;SDS011;50943;51.448;7.646;2022-07-01T06:37:42;12.07;;;7.17;;
5831;SDS011;50943;51.448;7.646;2022-07-01T06:40:08;11.97;;;6.70;;
5831;SDS011;50943;51.448;7.646;2022-07-01T06:42:35;10.67;;;6.37;;
5831;SDS011;50943;51.448;7.646;2022-07-01T06:45:01;14.00;;;7.67;;
5831;SDS011;50943;51.448;7.646;2022-07-01T06:47:29;9.07;;;7.10;;
5831;SDS011;50943;51.448;7.646;2022-07-01T06:49:55;18.00;;;7.47;;
5831;SDS011;50943;51.448;7.646;2022-07-01T06:52:22;13.73;;;6.30;;
5831;SDS011;50943;51.448;7.646;2022-07-01T06:54:48;12.53;;;6.10;;
5831;SDS011;50943;51.448;7.646;2022-07-01T06:57:15;9.57;;;5.73;;
5831;SDS011;50943;51.448;7.646;2022-07-01T06:59:41;8.27;;;5.40;;
5831;SDS011;50943;51.448;7.646;2022-07-01T07:02:07;8.00;;;5.40;;
5831;SDS011;50943;51.448;7.646;2022-07-01T07:04:35;8.10;;;5.33;;
5831;SDS011;50943;51.448;7.646;2022-07-01T07:07:02;6.70;;;4.73;;
5831;SDS011;50943;51.448;7.646;2022-07-01T07:09:28;9.03;;;5.23;;
5831;SDS011;50943;51.448;7.646;2022-07-01T07:11:55;8.30;;;4.27;;
5831;SDS011;50943;51.448;7.646;2022-07-01T07:14:21;9.53;;;4.37;;
5831;SDS011;50943;51.448;7.646;2022-07-01T07:16:47;7.17;;;4.50;;
5831;SDS011;50943;51.448;7.646;2022-07-01T07:19:16;8.80;;;5.17;;
5831;SDS011;50943;51.448;7.646;2022-07-01T07:21:44;10.03;;;4.77;;
5831;SDS011;50943;51.448;7.646;2022-07-01T07:24:10;11.40;;;5.07;;
5831;SDS011;50943;51.448;7.646;2022-07-01T07:26:36;7.83;;;5.10;;
5831;SDS011;50943;51.448;7.646;2022-07-01T07:29:03;7.47;;;3.80;;
5831;SDS011;50943;51.448;7.646;2022-07-01T07:31:29;6.03;;;3.80;;
5831;SDS011;50943;51.448;7.646;2022-07-01T07:33:55;8.00;;;3.90;;
5831;SDS011;50943;51.448;7.646;2022-07-01T07:36:22;8.20;;;4.00;;
5831;SDS011;50943;51.448;7.646;2022-07-01T07:38:50;11.23;;;4.00;;
5831;SDS011;50943;51.448;7.646;2022-07-01T07:41:16;5.40;;;3.50;;
5831;SDS011;50943;51.448;7.646;2022-07-01T07:43:42;6.30;;;3.53;;
5831;SDS011;50943;51.448;7.646;2022-07-01T07:46:09;5.60;;;3.67;;
5831;SDS011;50943;51.448;7.646;2022-07-01T07:48:35;4.63;;;3.13;;
5831;SDS011;50943;51.448;7.646;2022-07-01T07:51:01;5.63;;;3.20;;
5831;SDS011;50943;51.448;7.646;2022-07-01T07:53:28;7.90;;;3.60;;
5831;SDS011;50943;51.448;7.646;2022-07-01T07:55:56;4.37;;;2.70;;
5831;SDS011;50943;51.448;7.646;2022-07-01T07:58:22;6.60;;;2.87;;
5831;SDS011;50943;51.448;7.646;2022-07-01T08:00:48;4.17;;;2.77;;
5831;SDS011;50943;51.448;7.646;2022-07-01T08:03:15;7.93;;;2.50;;
5831;SDS011;50943;51.448;7.646;2022-07-01T08:05:41;6.00;;;2.73;;
5831;SDS011;50943;51.448;7.646;2022-07-01T08:08:07;8.97;;;3.20;;
5831;SDS011;50943;51.448;7.646;2022-07-01T08:10:34;4.83;;;2.93;;
5831;SDS011;50943;51.448;7.646;2022-07-01T08:13:02;8.77;;;2.80;;
5831;SDS011;50943;51.448;7.646;2022-07-01T08:15:29;8.07;;;2.80;;
5831;SDS011;50943;51.448;7.646;2022-07-01T08:17:56;11.97;;;3.00;;
5831;SDS011;50943;51.448;7.646;2022-07-01T08:20:22;12.60;;;3.00;;
5831;SDS011;50943;51.448;7.646;2022-07-01T08:22:48;4.13;;;2.60;;
5831;SDS011;50943;51.448;7.646;2022-07-01T08:25:15;6.40;;;3.10;;
5831;SDS011;50943;51.448;7.646;2022-07-01T08:27:41;7.20;;;2.60;;
5831;SDS011;50943;51.448;7.646;2022-07-01T08:30:10;6.50;;;2.60;;
5831;SDS011;50943;51.448;7.646;2022-07-01T08:32:37;6.47;;;2.83;;
5831;SDS011;50943;51.448;7.646;2022-07-01T08:35:04;5.60;;;2.97;;
5831;SDS011;50943;51.448;7.646;2022-07-01T08:37:30;8.27;;;3.00;;
5831;SDS011;50943;51.448;7.646;2022-07-01T08:39:57;8.17;;;2.60;;
5831;SDS011;50943;51.448;7.646;2022-07-01T08:42:24;6.73;;;2.80;;
5831;SDS011;50943;51.448;7.646;2022-07-01T08:44:51;4.07;;;2.30;;
5831;SDS011;50943;51.448;7.646;2022-07-01T08:47:19;5.87;;;2.40;;
5831;SDS011;50943;51.448;7.646;2022-07-01T08:49:45;5.80;;;3.13;;
5831;SDS011;50943;51.448;7.646;2022-07-01T08:52:11;3.87;;;2.40;;
5831;SDS011;50943;51.448;7.646;2022-07-01T08:54:38;5.63;;;2.60;;
5831;SDS011;50943;51.448;7.646;2022-07-01T08:57:06;4.63;;;2.77;;
5831;SDS011;50943;51.448;7.646;2022-07-01T08:59:32;11.80;;;4.03;;
5831;SDS011;50943;51.448;7.646;2022-07-01T09:01:59;9.33;;;3.20;;
5831;SDS011;50943;51.448;7.646;2022-07-01T09:04:27;3.77;;;2.60;;
5831;SDS011;50943;51.448;7.646;2022-07-01T09:06:59;5.13;;;2.60;;
5831;SDS011;50943;51.448;7.646;2022-07-01T09:09:26;8.37;;;3.03;;
5831;SDS011;50943;51.448;7.646;2022-07-01T09:11:53;6.23;;;3.40;;
5831;SDS011;50943;51.448;7.646;2022-07-01T09:14:20;4.00;;;3.30;;
5831;SDS011;50943;51.448;7.646;2022-07-01T09:16:47;8.33;;;3.30;;
5831;SDS011;50943;51.448;7.646;2022-07-01T09:19:15;7.53;;;3.23;;
5831;SDS011;50943;51.448;7.646;2022-07-01T09:21:43;3.50;;;2.63;;
5831;SDS011;50943;51.448;7.646;2022-07-01T09:24:24;6.20;;;2.90;;
5831;SDS011;50943;51.448;7.646;2022-07-01T09:26:57;7.17;;;2.97;;
5831;SDS011;50943;51.448;7.646;2022-07-01T09:29:28;4.50;;;2.87;;
5831;SDS011;50943;51.448;7.646;2022-07-01T09:31:56;5.97;;;2.50;;
5831;SDS011;50943;51.448;7.646;2022-07-01T09:34:23;5.43;;;2.83;;
5831;SDS011;50943;51.448;7.646;2022-07-01T09:36:55;7.03;;;2.60;;
5831;SDS011;50943;51.448;7.646;2022-07-01T09:39:22;6.53;;;2.60;;
5831;SDS011;50943;51.448;7.646;2022-07-01T09:41:48;6.47;;;3.10;;
5831;SDS011;50943;51.448;7.646;2022-07-01T09:44:15;6.57;;;3.30;;
5831;SDS011;50943;51.448;7.646;2022-07-01T09:46:54;7.57;;;3.40;;
5831;SDS011;50943;51.448;7.646;2022-07-01T09:49:21;7.97;;;2.70;;
5831;SDS011;50943;51.448;7.646;2022-07-01T09:51:48;7.37;;;2.87;;
5831;SDS011;50943;51.448;7.646;2022-07-01T09:54:16;4.50;;;3.07;;
5831;SDS011;50943;51.448;7.646;2022-07-01T09:56:43;5.83;;;2.57;;
5831;SDS011;50943;51.448;7.646;2022-07-01T09:59:09;4.83;;;2.63;;
5831;SDS011;50943;51.448;7.646;2022-07-01T10:01:37;3.83;;;1.90;;
5831;SDS011;50943;51.448;7.646;2022-07-01T10:04:04;4.70;;;2.37;;
5831;SDS011;50943;51.448;7.646;2022-07-01T10:06:53;7.20;;;2.20;;
5831;SDS011;50943;51.448;7.646;2022-07-01T10:09:38;4.33;;;2.10;;
5831;SDS011;50943;51.448;7.646;2022-07-01T10:15:08;3.40;;;1.80;;
5831;SDS011;50943;51.448;7.646;2022-07-01T10:17:35;5.93;;;2.00;;
5831;SDS011;50943;51.448;7.646;2022-07-01T10:20:06;6.80;;;2.27;;
5831;SDS011;50943;51.448;7.646;2022-07-01T10:22:34;3.10;;;1.67;;
5831;SDS011;50943;51.448;7.646;2022-07-01T10:27:43;4.77;;;2.10;;
5831;SDS011;50943;51.448;7.646;2022-07-01T10:30:13;5.93;;;2.20;;
5831;SDS011;50943;51.448;7.646;2022-07-01T10:32:46;2.90;;;1.80;;
5831;SDS011;50943;51.448;7.646;2022-07-01T10:35:12;5.63;;;2.00;;
5831;SDS011;50943;51.448;7.646;2022-07-01T10:37:46;3.87;;;1.90;;
5831;SDS011;50943;51.448;7.646;2022-07-01T10:40:24;4.00;;;2.20;;
5831;SDS011;50943;51.448;7.646;2022-07-01T10:43:06;3.70;;;1.80;;
5831;SDS011;50943;51.448;7.646;2022-07-01T10:45:40;9.27;;;2.30;;
5831;SDS011;50943;51.448;7.646;2022-07-01T10:48:19;3.90;;;2.07;;
5831;SDS011;50943;51.448;7.646;2022-07-01T10:50:46;11.13;;;2.17;;
5831;SDS011;50943;51.448;7.646;2022-07-01T10:53:13;6.23;;;1.80;;
5831;SDS011;50943;51.448;7.646;2022-07-01T10:55:40;8.70;;;2.30;;
5831;SDS011;50943;51.448;7.646;2022-07-01T10:58:08;6.63;;;2.17;;
5831;SDS011;50943;51.448;7.646;2022-07-01T11:00:35;5.43;;;1.93;;
5831;SDS011;50943;51.448;7.646;2022-07-01T11:05:51;4.50;;;2.40;;
5831;SDS011;50943;51.448;7.646;2022-07-01T11:08:18;2.90;;;1.93;;
5831;SDS011;50943;51.448;7.646;2022-07-01T11:10:48;6.00;;;2.40;;
5831;SDS011;50943;51.448;7.646;2022-07-01T11:13:16;2.70;;;2.03;;
5831;SDS011;50943;51.448;7.646;2022-07-01T11:15:45;4.90;;;2.20;;
5831;SDS011;50943;51.448;7.646;2022-07-01T11:18:13;3.10;;;2.20;;
5831;SDS011;50943;51.448;7.646;2022-07-01T11:20:40;3.93;;;2.10;;
5831;SDS011;50943;51.448;7.646;2022-07-01T11:23:06;7.53;;;2.67;;
5831;SDS011;50943;51.448;7.646;2022-07-01T11:25:33;3.43;;;2.37;;
5831;SDS011;50943;51.448;7.646;2022-07-01T11:27:59;7.53;;;2.37;;
5831;SDS011;50943;51.448;7.646;2022-07-01T11:30:27;4.80;;;1.87;;
5831;SDS011;50943;51.448;7.646;2022-07-01T11:32:54;5.87;;;2.83;;
5831;SDS011;50943;51.448;7.646;2022-07-01T11:35:22;5.00;;;1.50;;
5831;SDS011;50943;51.448;7.646;2022-07-01T11:38:07;3.97;;;2.03;;
5831;SDS011;50943;51.448;7.646;2022-07-01T11:40:51;5.17;;;1.97;;
5831;SDS011;50943;51.448;7.646;2022-07-01T11:43:18;11.30;;;2.33;;
5831;SDS011;50943;51.448;7.646;2022-07-01T11:45:46;4.67;;;2.23;;
5831;SDS011;50943;51.448;7.646;2022-07-01T11:48:15;4.13;;;1.73;;
5831;SDS011;50943;51.448;7.646;2022-07-01T11:50:53;3.97;;;1.73;;
5831;SDS011;50943;51.448;7.646;2022-07-01T11:53:19;3.30;;;1.90;;
5831;SDS011;50943;51.448;7.646;2022-07-01T11:55:46;3.60;;;1.97;;
5831;SDS011;50943;51.448;7.646;2022-07-01T11:58:13;4.30;;;1.77;;
5831;SDS011;50943;51.448;7.646;2022-07-01T12:00:40;4.10;;;1.90;;
5831;SDS011;50943;51.448;7.646;2022-07-01T12:03:08;4.30;;;1.57;;
5831;SDS011;50943;51.448;7.646;2022-07-01T12:05:35;4.07;;;1.70;;
5831;SDS011;50943;51.448;7.646;2022-07-01T12:08:02;3.40;;;1.70;;
5831;SDS011;50943;51.448;7.646;2022-07-01T12:10:28;5.17;;;1.50;;
5831;SDS011;50943;51.448;7.646;2022-07-01T12:12:56;2.93;;;1.30;;
5831;SDS011;50943;51.448;7.646;2022-07-01T12:15:22;2.33;;;1.10;;
5831;SDS011;50943;51.448;7.646;2022-07-01T12:17:49;3.37;;;1.40;;
5831;SDS011;50943;51.448;7.646;2022-07-01T12:20:16;3.43;;;1.33;;
5831;SDS011;50943;51.448;7.646;2022-07-01T12:23:09;3.07;;;1.33;;
5831;SDS011;50943;51.448;7.646;2022-07-01T12:25:36;6.37;;;1.47;;
5831;SDS011;50943;51.448;7.646;2022-07-01T12:28:04;3.13;;;1.30;;
5831;SDS011;50943;51.448;7.646;2022-07-01T12:30:30;3.57;;;1.20;;
5831;SDS011;50943;51.448;7.646;2022-07-01T12:32:58;4.23;;;1.20;;
5831;SDS011;50943;51.448;7.646;2022-07-01T12:35:26;3.83;;;1.00;;
5831;SDS011;50943;51.448;7.646;2022-07-01T12:38:02;4.40;;;1.53;;
5831;SDS011;50943;51.448;7.646;2022-07-01T12:40:32;2.57;;;1.10;;
5831;SDS011;50943;51.448;7.646;2022-07-01T12:42:59;2.90;;;1.00;;
5831;SDS011;50943;51.448;7.646;2022-07-01T12:45:31;4.50;;;1.30;;
5831;SDS011;50943;51.448;7.646;2022-07-01T12:48:00;2.80;;;1.10;;
5831;SDS011;50943;51.448;7.646;2022-07-01T12:50:28;4.20;;;1.00;;
5831;SDS011;50943;51.448;7.646;2022-07-01T12:52:57;6.27;;;1.20;;
5831;SDS011;50943;51.448;7.646;2022-07-01T12:55:24;3.73;;;1.20;;
5831;SDS011;50943;51.448;7.646;2022-07-01T12:57:52;1.83;;;1.00;;
5831;SDS011;50943;51.448;7.646;2022-07-01T13:00:19;4.10;;;1.30;;
5831;SDS011;50943;51.448;7.646;2022-07-01T13:02:45;2.03;;;1.00;;
5831;SDS011;50943;51.448;7.646;2022-07-01T13:05:12;4.03;;;1.40;;
5831;SDS011;50943;51.448;7.646;2022-07-01T13:07:40;2.87;;;1.00;;
5831;SDS011;50943;51.448;7.646;2022-07-01T13:10:06;6.50;;;1.40;;
5831;SDS011;50943;51.448;7.646;2022-07-01T13:12:33;3.27;;;1.10;;
5831;SDS011;50943;51.448;7.646;2022-07-01T13:14:59;3.40;;;1.20;;
5831;SDS011;50943;51.448;7.646;2022-07-01T13:17:26;8.13;;;0.80;;
5831;SDS011;50943;51.448;7.646;2022-07-01T13:19:53;1.83;;;0.90;;
5831;SDS011;50943;51.448;7.646;2022-07-01T13:22:19;1.67;;;0.90;;
5831;SDS011;50943;51.448;7.646;2022-07-01T13:24:47;3.00;;;1.53;;
5831;SDS011;50943;51.448;7.646;2022-07-01T13:27:13;3.10;;;1.07;;
5831;SDS011;50943;51.448;7.646;2022-07-01T13:29:40;4.87;;;1.03;;
5831;SDS011;50943;51.448;7.646;2022-07-01T13:32:06;2.43;;;1.10;;
5831;SDS011;50943;51.448;7.646;2022-07-01T13:34:33;3.30;;;1.00;;
5831;SDS011;50943;51.448;7.646;2022-07-01T13:36:59;1.93;;;0.90;;
5831;SDS011;50943;51.448;7.646;2022-07-01T13:39:26;2.20;;;0.97;;
5831;SDS011;50943;51.448;7.646;2022-07-01T13:41:54;3.10;;;0.90;;
5831;SDS011;50943;51.448;7.646;2022-07-01T13:44:21;2.87;;;1.00;;
5831;SDS011;50943;51.448;7.646;2022-07-01T13:46:47;4.07;;;1.50;;
5831;SDS011;50943;51.448;7.646;2022-07-01T13:49:14;2.50;;;1.00;;
5831;SDS011;50943;51.448;7.646;2022-07-01T13:51:40;4.03;;;1.10;;
5831;SDS011;50943;51.448;7.646;2022-07-01T13:54:07;4.73;;;1.00;;
5831;SDS011;50943;51.448;7.646;2022-07-01T13:56:33;4.13;;;1.47;;
5831;SDS011;50943;51.448;7.646;2022-07-01T13:59:01;2.70;;;0.90;;
5831;SDS011;50943;51.448;7.646;2022-07-01T14:01:28;1.87;;;1.00;;
5831;SDS011;50943;51.448;7.646;2022-07-01T14:03:55;5.10;;;1.20;;
5831;SDS011;50943;51.448;7.646;2022-07-01T14:06:21;6.20;;;1.37;;
5831;SDS011;50943;51.448;7.646;2022-07-01T14:08:47;4.27;;;1.20;;
5831;SDS011;50943;51.448;7.646;2022-07-01T14:11:14;2.43;;;1.10;;
5831;SDS011;50943;51.448;7.646;2022-07-01T14:13:40;5.33;;;1.03;;
5831;SDS011;50943;51.448;7.646;2022-07-01T14:16:08;3.17;;;0.93;;
5831;SDS011;50943;51.448;7.646;2022-07-01T14:18:35;2.53;;;0.77;;
5831;SDS011;50943;51.448;7.646;2022-07-01T14:21:01;2.93;;;1.27;;
5831;SDS011;50943;51.448;7.646;2022-07-01T14:23:28;1.77;;;1.03;;
5831;SDS011;50943;51.448;7.646;2022-07-01T14:25:54;2.47;;;1.67;;
5831;SDS011;50943;51.448;7.646;2022-07-01T14:28:21;1.37;;;1.00;;
5831;SDS011;50943;51.448;7.646;2022-07-01T14:30:47;3.10;;;1.00;;
5831;SDS011;50943;51.448;7.646;2022-07-01T14:33:16;2.37;;;1.03;;
5831;SDS011;50943;51.448;7.646;2022-07-01T14:35:43;2.37;;;1.00;;
5831;SDS011;50943;51.448;7.646;2022-07-01T14:38:09;2.20;;;0.80;;
5831;SDS011;50943;51.448;7.646;2022-07-01T14:40:36;10.33;;;1.10;;
5831;SDS011;50943;51.448;7.646;2022-07-01T14:43:03;4.60;;;1.20;;
5831;SDS011;50943;51.448;7.646;2022-07-01T14:45:29;1.77;;;0.70;;
5831;SDS011;50943;51.448;7.646;2022-07-01T14:47:56;3.37;;;0.90;;
5831;SDS011;50943;51.448;7.646;2022-07-01T14:50:24;2.40;;;0.80;;
5831;SDS011;50943;51.448;7.646;2022-07-01T14:52:50;2.33;;;0.90;;
5831;SDS011;50943;51.448;7.646;2022-07-01T14:55:17;3.47;;;0.80;;
5831;SDS011;50943;51.448;7.646;2022-07-01T14:57:43;1.60;;;0.83;;
5831;SDS011;50943;51.448;7.646;2022-07-01T15:00:10;0.90;;;0.70;;
5831;SDS011;50943;51.448;7.646;2022-07-01T15:02:36;4.00;;;1.00;;
5831;SDS011;50943;51.448;7.646;2022-07-01T15:05:03;5.13;;;1.00;;
5831;SDS011;50943;51.448;7.646;2022-07-01T15:07:31;2.07;;;1.00;;